createdAt,value
2023-05-21T00:01:37.433Z,17.50
2023-05-21T00:04:29.898Z,17.40
2023-05-21T00:07:18.801Z,17.50
2023-05-21T00:10:08.536Z,17.50
2023-05-21T00:12:57.168Z,17.50
2023-05-21T00:15:46.012Z,17.40
2023-05-21T00:18:34.763Z,17.40
2023-05-21T00:21:26.286Z,17.30
2023-05-21T00:24:15.213Z,17.40
2023-05-21T00:27:04.423Z,17.30
2023-05-21T00:29:56.555Z,17.20
2023-05-21T00:32:45.279Z,17.20
2023-05-21T00:35:34.323Z,17.10
2023-05-21T00:38:27.958Z,17.20
2023-05-21T00:41:17.685Z,17.20
2023-05-21T00:44:07.003Z,17.10
2023-05-21T00:46:56.262Z,17.20
2023-05-21T00:49:45.432Z,17.00
2023-05-21T00:52:41.612Z,17.00
2023-05-21T00:55:32.308Z,17.00
2023-05-21T00:58:21.396Z,17.00
2023-05-21T01:01:13.736Z,16.80
2023-05-21T01:04:03.197Z,16.80
2023-05-21T01:06:53.559Z,16.80
2023-05-21T01:09:42.963Z,16.90
2023-05-21T01:12:34.498Z,16.70
2023-05-21T01:15:23.563Z,16.80
2023-05-21T01:18:14.396Z,16.90
2023-05-21T01:21:03.552Z,16.90
2023-05-21T01:23:54.044Z,16.80
2023-05-21T01:26:44.374Z,16.80
2023-05-21T01:29:33.599Z,16.70
2023-05-21T01:32:31.179Z,16.70
2023-05-21T01:35:23.556Z,16.70
2023-05-21T01:38:19.762Z,16.70
2023-05-21T01:41:13.781Z,16.60
2023-05-21T01:44:04.220Z,16.60
2023-05-21T01:46:54.838Z,16.60
2023-05-21T01:49:43.959Z,16.60
2023-05-21T01:52:33.268Z,16.60
2023-05-21T01:55:24.946Z,16.60
2023-05-21T01:58:16.154Z,16.50
2023-05-21T02:01:05.163Z,16.50
2023-05-21T02:03:58.183Z,16.50
2023-05-21T02:06:47.800Z,16.40
2023-05-21T02:09:36.632Z,16.40
2023-05-21T02:12:25.319Z,16.40
2023-05-21T02:15:18.223Z,16.40
2023-05-21T02:18:07.125Z,16.50
2023-05-21T02:20:56.437Z,16.40
2023-05-21T02:23:45.492Z,16.30
2023-05-21T02:26:34.234Z,16.40
2023-05-21T02:29:23.055Z,16.30
2023-05-21T02:32:13.104Z,16.30
2023-05-21T02:35:03.794Z,16.30
2023-05-21T02:37:52.522Z,16.20
2023-05-21T02:40:41.261Z,16.30
2023-05-21T02:43:30.071Z,16.30
2023-05-21T02:46:18.914Z,16.30
2023-05-21T02:49:09.090Z,16.30
2023-05-21T02:51:57.782Z,16.20
2023-05-21T02:54:46.526Z,16.20
2023-05-21T02:57:35.398Z,16.10
2023-05-21T03:00:24.037Z,16.20
2023-05-21T03:03:12.965Z,16.20
2023-05-21T03:06:03.390Z,16.20
2023-05-21T03:08:52.148Z,16.10
2023-05-21T03:11:40.982Z,16.20
2023-05-21T03:14:29.938Z,16.20
2023-05-21T03:17:19.128Z,16.20
2023-05-21T03:20:16.099Z,16.20
2023-05-21T03:23:06.780Z,16.10
2023-05-21T03:25:55.484Z,16.20
2023-05-21T03:28:44.380Z,16.20
2023-05-21T03:31:37.458Z,16.20
2023-05-21T03:34:34.547Z,16.20
2023-05-21T03:37:24.281Z,16.30
2023-05-21T03:40:15.421Z,16.30
2023-05-21T03:43:04.256Z,16.20
2023-05-21T03:45:53.221Z,16.30
2023-05-21T03:49:04.936Z,16.40
2023-05-21T03:51:55.377Z,16.30
2023-05-21T03:54:45.021Z,16.30
2023-05-21T03:57:35.434Z,16.30
2023-05-21T04:00:24.857Z,16.40
2023-05-21T04:03:15.467Z,16.40
2023-05-21T04:06:04.910Z,16.60
2023-05-21T04:08:53.704Z,16.40
2023-05-21T04:11:42.965Z,16.20
2023-05-21T04:14:34.341Z,16.20
2023-05-21T04:17:23.051Z,16.20
2023-05-21T04:20:13.811Z,16.10
2023-05-21T04:23:03.085Z,16.20
2023-05-21T04:25:52.439Z,16.20
2023-05-21T04:28:42.270Z,16.30
2023-05-21T04:31:34.157Z,16.40
2023-05-21T04:34:25.049Z,16.60
2023-05-21T04:37:14.012Z,16.50
2023-05-21T04:40:03.356Z,16.60
2023-05-21T04:42:52.529Z,16.70
2023-05-21T04:45:45.231Z,16.90
2023-05-21T04:48:36.081Z,17.00
2023-05-21T04:51:27.839Z,17.00
2023-05-21T04:54:16.788Z,17.20
2023-05-21T04:57:05.833Z,17.20
2023-05-21T04:59:56.416Z,17.40
2023-05-21T05:02:45.153Z,17.20
2023-05-21T05:05:35.901Z,17.30
2023-05-21T05:08:24.904Z,17.50
2023-05-21T05:11:14.133Z,17.70
2023-05-21T05:14:03.476Z,17.70
2023-05-21T05:16:52.511Z,17.70
2023-05-21T05:19:41.715Z,17.70
2023-05-21T05:22:32.221Z,17.90
2023-05-21T05:25:21.233Z,18.10
2023-05-21T05:28:10.075Z,18.00
2023-05-21T05:30:58.837Z,18.20
2023-05-21T05:33:49.435Z,18.30
2023-05-21T05:36:38.482Z,18.50
2023-05-21T05:39:28.705Z,18.50
2023-05-21T05:42:17.469Z,18.50
2023-05-21T05:45:08.467Z,18.70
2023-05-21T05:47:57.356Z,18.80
2023-05-21T05:50:47.361Z,18.90
2023-05-21T05:53:36.700Z,19.10
2023-05-21T05:56:27.222Z,19.50
2023-05-21T05:59:16.610Z,21.20
2023-05-21T06:02:09.504Z,22.80
2023-05-21T06:04:59.052Z,22.10
2023-05-21T06:07:47.919Z,21.10
2023-05-21T06:10:37.066Z,20.90
2023-05-21T06:13:28.315Z,20.30
2023-05-21T06:16:17.666Z,20.20
2023-05-21T06:19:07.076Z,20.40
2023-05-21T06:21:55.894Z,20.00
2023-05-21T06:24:44.729Z,19.80
2023-05-21T06:27:34.600Z,19.80
2023-05-21T06:30:25.954Z,20.00
2023-05-21T06:33:15.205Z,20.20
2023-05-21T06:36:04.949Z,20.40
2023-05-21T06:38:54.062Z,20.40
2023-05-21T06:41:42.997Z,20.50
2023-05-21T06:45:01.552Z,20.70
2023-05-21T06:47:54.534Z,21.00
2023-05-21T06:50:43.334Z,20.90
2023-05-21T06:53:32.416Z,20.60
2023-05-21T06:56:22.151Z,20.80
2023-05-21T06:59:11.019Z,20.90
2023-05-21T07:02:00.983Z,21.30
2023-05-21T07:04:53.828Z,21.30
2023-05-21T07:07:42.506Z,21.60
2023-05-21T07:10:31.225Z,21.70
2023-05-21T07:13:20.153Z,21.80
2023-05-21T07:16:09.550Z,22.10
2023-05-21T07:19:00.278Z,22.50
2023-05-21T07:21:50.869Z,23.00
2023-05-21T07:24:39.843Z,23.20
2023-05-21T07:27:28.656Z,22.90
2023-05-21T07:30:18.050Z,23.20
2023-05-21T07:33:07.019Z,23.50
2023-05-21T07:35:56.118Z,23.70
2023-05-21T07:38:46.964Z,24.60
2023-05-21T07:41:35.925Z,24.90
2023-05-21T07:44:28.594Z,25.10
2023-05-21T07:47:18.157Z,25.70
2023-05-21T07:50:08.163Z,26.50
2023-05-21T07:52:57.328Z,26.50
2023-05-21T07:55:48.921Z,26.80
2023-05-21T07:58:41.644Z,27.00
2023-05-21T08:01:31.180Z,27.10
2023-05-21T08:04:20.450Z,27.30
2023-05-21T08:07:09.886Z,27.60
2023-05-21T08:10:02.784Z,27.70
2023-05-21T08:12:54.449Z,27.60
2023-05-21T08:15:44.536Z,28.10
2023-05-21T08:18:34.138Z,28.10
2023-05-21T08:21:23.904Z,28.10
2023-05-21T08:24:12.677Z,28.00
2023-05-21T08:27:01.953Z,28.40
2023-05-21T08:29:54.013Z,28.80
2023-05-21T08:32:43.130Z,28.70
2023-05-21T08:35:33.721Z,28.00
2023-05-21T08:38:57.779Z,28.70
2023-05-21T08:42:06.040Z,28.70
2023-05-21T08:45:00.812Z,28.20
2023-05-21T08:47:49.719Z,29.20
2023-05-21T08:50:39.472Z,29.50
2023-05-21T08:53:35.575Z,29.50
2023-05-21T08:56:27.169Z,28.90
2023-05-21T08:59:22.102Z,29.40
2023-05-21T09:02:14.340Z,29.60
2023-05-21T09:05:04.634Z,29.50
2023-05-21T09:08:02.380Z,29.20
2023-05-21T09:11:17.469Z,28.50
2023-05-21T09:14:13.935Z,29.00
2023-05-21T09:17:22.066Z,29.40
2023-05-21T09:20:25.990Z,29.40
2023-05-21T09:23:20.291Z,30.10
2023-05-21T09:26:14.116Z,30.20
2023-05-21T09:29:03.876Z,30.60
2023-05-21T09:31:54.985Z,30.70
2023-05-21T09:34:45.149Z,31.00
2023-05-21T09:40:26.646Z,31.70
2023-05-21T09:43:17.094Z,31.70
2023-05-21T09:46:06.025Z,32.50
2023-05-21T09:48:55.285Z,32.40
2023-05-21T09:51:46.100Z,34.40
2023-05-21T09:54:36.540Z,33.30
2023-05-21T09:57:26.556Z,34.60
2023-05-21T10:00:25.283Z,35.30
2023-05-21T10:03:17.232Z,36.10
2023-05-21T10:06:08.863Z,36.10
2023-05-21T10:09:05.648Z,36.30
2023-05-21T10:11:56.240Z,37.20
2023-05-21T10:14:50.767Z,37.90
2023-05-21T10:17:40.701Z,37.80
2023-05-21T10:20:30.206Z,37.90
2023-05-21T10:23:19.732Z,37.90
2023-05-21T10:26:10.948Z,36.80
2023-05-21T10:29:00.906Z,37.20
2023-05-21T10:31:52.595Z,37.10
2023-05-21T10:34:41.748Z,38.10
2023-05-21T10:37:31.199Z,39.10
2023-05-21T10:40:19.994Z,40.50
2023-05-21T10:43:32.700Z,39.80
2023-05-21T10:46:57.920Z,41.10
2023-05-21T10:50:04.987Z,41.10
2023-05-21T10:53:09.948Z,41.00
2023-05-21T10:56:12.582Z,39.90
2023-05-21T10:59:21.962Z,40.30
2023-05-21T11:05:02.417Z,39.20
2023-05-21T11:07:58.042Z,41.90
2023-05-21T11:10:53.479Z,42.70
2023-05-21T11:13:49.955Z,42.50
2023-05-21T11:16:47.630Z,40.70
2023-05-21T11:19:42.267Z,41.10
2023-05-21T11:22:31.086Z,41.30
2023-05-21T11:25:20.381Z,42.30
2023-05-21T11:28:09.756Z,44.40
2023-05-21T11:31:29.941Z,44.20
2023-05-21T11:34:28.603Z,43.20
2023-05-21T11:37:32.136Z,43.60
2023-05-21T11:43:20.375Z,46.00
2023-05-21T11:46:13.466Z,45.40
2023-05-21T11:49:04.215Z,46.60
2023-05-21T11:51:54.389Z,46.20
2023-05-21T11:54:46.546Z,48.00
2023-05-21T11:57:35.394Z,47.80
2023-05-21T12:00:24.477Z,46.90
2023-05-21T12:03:16.634Z,46.70
2023-05-21T12:06:06.815Z,44.20
2023-05-21T12:08:58.551Z,44.70
2023-05-21T12:11:47.440Z,43.30
2023-05-21T12:14:36.422Z,43.00
2023-05-21T12:17:26.502Z,42.00
2023-05-21T12:20:17.208Z,41.60
2023-05-21T12:23:06.134Z,41.20
2023-05-21T12:25:56.410Z,44.90
2023-05-21T12:28:45.889Z,47.20
2023-05-21T12:31:34.757Z,47.70
2023-05-21T12:34:40.779Z,48.00
2023-05-21T12:37:31.460Z,49.00
2023-05-21T12:40:21.073Z,45.10
2023-05-21T12:43:11.654Z,40.10
2023-05-21T12:46:00.777Z,36.10
2023-05-21T12:48:56.348Z,34.10
2023-05-21T12:51:47.041Z,32.20
2023-05-21T12:54:37.395Z,30.80
2023-05-21T12:57:29.674Z,29.80
2023-05-21T13:00:25.198Z,29.40
2023-05-21T13:03:14.634Z,28.50
2023-05-21T13:06:03.943Z,28.70
2023-05-21T13:08:52.740Z,28.30
2023-05-21T13:11:41.942Z,28.30
2023-05-21T13:14:30.841Z,27.50
2023-05-21T13:17:21.725Z,26.80
2023-05-21T13:20:12.585Z,26.80
2023-05-21T13:23:03.975Z,26.90
2023-05-21T13:25:54.458Z,27.10
2023-05-21T13:28:43.266Z,27.10
2023-05-21T13:31:32.289Z,26.70
2023-05-21T13:34:22.320Z,26.40
2023-05-21T13:37:11.051Z,26.50
2023-05-21T13:39:59.856Z,26.10
2023-05-21T13:42:50.537Z,26.10
2023-05-21T13:45:39.318Z,25.80
2023-05-21T13:48:28.239Z,25.80
2023-05-21T13:51:37.154Z,25.70
2023-05-21T13:54:27.356Z,25.60
2023-05-21T13:57:16.660Z,25.70
2023-05-21T14:00:06.561Z,25.50
2023-05-21T14:02:58.348Z,25.20
2023-05-21T14:05:48.495Z,25.30
2023-05-21T14:08:38.602Z,25.20
2023-05-21T14:11:28.045Z,25.00
2023-05-21T14:14:19.181Z,24.90
2023-05-21T14:17:08.205Z,25.00
2023-05-21T14:19:57.113Z,25.00
2023-05-21T14:22:46.404Z,24.90
2023-05-21T14:25:37.516Z,24.80
2023-05-21T14:28:26.460Z,24.90
2023-05-21T14:31:18.690Z,24.90
2023-05-21T14:34:08.847Z,24.80
2023-05-21T14:36:58.826Z,24.80
2023-05-21T14:39:47.721Z,24.50
2023-05-21T14:42:38.150Z,24.60
2023-05-21T14:45:26.923Z,24.70
2023-05-21T14:48:15.868Z,24.50
2023-05-21T14:51:04.734Z,24.40
2023-05-21T14:53:53.767Z,24.30
2023-05-21T14:56:42.681Z,24.20
2023-05-21T14:59:36.639Z,24.50
2023-05-21T15:02:25.769Z,24.50
2023-05-21T15:05:14.859Z,24.40
2023-05-21T15:08:06.123Z,24.20
2023-05-21T15:10:54.876Z,24.20
2023-05-21T15:13:43.692Z,24.20
2023-05-21T15:16:37.180Z,24.10
2023-05-21T15:19:27.495Z,24.20
2023-05-21T15:22:16.443Z,24.20
2023-05-21T15:25:05.938Z,24.20
2023-05-21T15:27:54.830Z,24.20
2023-05-21T15:30:43.847Z,24.10
2023-05-21T15:33:34.251Z,24.00
2023-05-21T15:36:23.122Z,24.00
2023-05-21T15:39:11.879Z,24.00
2023-05-21T15:42:00.973Z,24.10
2023-05-21T15:44:49.736Z,24.00
2023-05-21T15:47:42.687Z,24.00
2023-05-21T15:50:35.594Z,23.70
2023-05-21T15:53:24.608Z,23.70
2023-05-21T15:56:13.250Z,23.70
2023-05-21T15:59:02.255Z,23.70
2023-05-21T16:01:50.857Z,23.70
2023-05-21T16:04:39.718Z,23.70
2023-05-21T16:07:29.826Z,23.80
2023-05-21T16:10:18.859Z,23.70
2023-05-21T16:13:07.684Z,23.60
2023-05-21T16:15:56.503Z,23.40
2023-05-21T16:18:45.696Z,23.40
2023-05-21T16:21:34.517Z,23.30
2023-05-21T16:24:24.732Z,23.30
2023-05-21T16:27:13.765Z,23.30
2023-05-21T16:30:02.472Z,23.30
2023-05-21T16:32:51.337Z,23.30
2023-05-21T16:35:40.017Z,23.20
2023-05-21T16:38:28.817Z,23.40
2023-05-21T16:41:19.179Z,23.40
2023-05-21T16:44:11.425Z,23.30
2023-05-21T16:47:02.278Z,23.30
2023-05-21T16:49:51.118Z,23.10
2023-05-21T16:52:40.706Z,23.00
2023-05-21T16:55:29.684Z,23.00
2023-05-21T16:58:19.973Z,22.80
2023-05-21T17:03:58.504Z,22.80
2023-05-21T17:06:47.473Z,22.90
2023-05-21T17:09:36.550Z,22.80
2023-05-21T17:12:26.353Z,22.70
2023-05-21T17:15:16.587Z,22.70
2023-05-21T17:18:05.354Z,22.70
2023-05-21T17:20:56.111Z,22.70
2023-05-21T17:23:44.931Z,22.60
2023-05-21T17:26:34.296Z,22.60
2023-05-21T17:29:23.055Z,22.60
2023-05-21T17:32:13.759Z,22.60
2023-05-21T17:35:02.707Z,22.50
2023-05-21T17:37:54.956Z,22.50
2023-05-21T17:40:43.876Z,22.50
2023-05-21T17:43:34.247Z,22.40
2023-05-21T17:46:23.264Z,22.30
2023-05-21T17:49:13.684Z,22.30
2023-05-21T17:52:04.606Z,22.30
2023-05-21T17:54:53.404Z,22.20
2023-05-21T17:57:42.294Z,22.20
2023-05-21T18:00:32.241Z,22.20
2023-05-21T18:03:21.057Z,22.00
2023-05-21T18:06:11.189Z,22.00
2023-05-21T18:09:00.254Z,22.10
2023-05-21T18:11:49.134Z,22.00
2023-05-21T18:14:38.045Z,21.90
2023-05-21T18:17:26.877Z,21.80
2023-05-21T18:20:15.901Z,21.80
2023-05-21T18:23:06.500Z,21.70
2023-05-21T18:25:55.286Z,21.70
2023-05-21T18:28:44.132Z,21.70
2023-05-21T18:31:33.221Z,21.60
2023-05-21T18:34:22.726Z,21.50
2023-05-21T18:37:11.850Z,21.50
2023-05-21T18:40:02.217Z,21.40
2023-05-21T18:42:51.348Z,21.40
2023-05-21T18:45:40.151Z,21.30
2023-05-21T18:48:29.194Z,21.40
2023-05-21T18:51:18.114Z,21.30
2023-05-21T18:54:08.641Z,21.20
2023-05-21T18:57:00.590Z,21.10
2023-05-21T18:59:49.716Z,21.10
2023-05-21T19:02:38.640Z,21.00
2023-05-21T19:05:27.663Z,21.00
2023-05-21T19:08:16.444Z,21.00
2023-05-21T19:11:05.213Z,21.10
2023-05-21T19:13:55.347Z,21.00
2023-05-21T19:16:48.236Z,21.00
2023-05-21T19:19:37.144Z,21.00
2023-05-21T19:22:26.497Z,20.90
2023-05-21T19:25:15.464Z,20.90
2023-05-21T19:28:04.283Z,20.80
2023-05-21T19:30:54.468Z,20.80
2023-05-21T19:33:43.282Z,20.70
2023-05-21T19:36:48.502Z,20.70
2023-05-21T19:39:42.511Z,20.70
2023-05-21T19:42:31.387Z,20.60
2023-05-21T19:45:24.046Z,20.60
2023-05-21T19:48:14.611Z,20.50
2023-05-21T19:51:03.596Z,20.40
2023-05-21T19:53:52.303Z,20.40
2023-05-21T19:56:41.149Z,20.30
2023-05-21T19:59:30.043Z,20.30
2023-05-21T20:02:19.238Z,20.20
2023-05-21T20:05:10.512Z,20.20
2023-05-21T20:07:59.359Z,20.10
2023-05-21T20:10:50.517Z,20.10
2023-05-21T20:13:41.385Z,20.10
2023-05-21T20:16:30.243Z,20.00
2023-05-21T20:19:20.634Z,20.00
2023-05-21T20:22:11.061Z,19.90
2023-05-21T20:25:02.257Z,19.90
2023-05-21T20:27:50.993Z,19.80
2023-05-21T20:30:54.292Z,19.80
2023-05-21T20:33:43.416Z,19.80
2023-05-21T20:36:34.066Z,19.70
2023-05-21T20:39:24.736Z,19.70
2023-05-21T20:42:15.034Z,19.60
2023-05-21T20:45:04.783Z,19.60
2023-05-21T20:47:53.666Z,19.50
2023-05-21T20:50:44.220Z,19.50
2023-05-21T20:53:34.076Z,19.50
2023-05-21T20:56:37.487Z,19.50
2023-05-21T20:59:30.933Z,19.50
2023-05-21T21:02:20.593Z,19.50
2023-05-21T21:05:10.643Z,19.50
2023-05-21T21:08:03.596Z,19.50
2023-05-21T21:10:52.347Z,19.50
2023-05-21T21:13:43.002Z,19.40
2023-05-21T21:16:32.102Z,19.40
2023-05-21T21:19:20.987Z,19.40
2023-05-21T21:22:10.232Z,19.30
2023-05-21T21:24:59.052Z,19.30
2023-05-21T21:27:47.908Z,19.30
2023-05-21T21:30:39.802Z,19.30
2023-05-21T21:33:28.960Z,19.20
2023-05-21T21:36:17.785Z,19.20
2023-05-21T21:39:06.905Z,19.20
2023-05-21T21:41:55.939Z,19.20
2023-05-21T21:44:44.634Z,19.10
2023-05-21T21:47:35.006Z,19.10
2023-05-21T21:50:23.867Z,19.10
2023-05-21T21:53:14.176Z,19.10
2023-05-21T21:56:03.234Z,19.00
2023-05-21T21:58:52.057Z,19.00
2023-05-21T22:01:41.150Z,19.00
2023-05-21T22:04:31.381Z,18.90
2023-05-21T22:07:20.994Z,19.00
2023-05-21T22:10:10.812Z,18.90
2023-05-21T22:12:59.764Z,18.90
2023-05-21T22:15:49.157Z,18.90
2023-05-21T22:18:41.187Z,18.90
2023-05-21T22:21:33.110Z,18.80
2023-05-21T22:24:32.123Z,18.80
2023-05-21T22:27:22.145Z,18.80
2023-05-21T22:30:11.747Z,18.80
2023-05-21T22:33:01.179Z,18.70
2023-05-21T22:35:49.985Z,18.60
2023-05-21T22:38:40.133Z,18.60
2023-05-21T22:41:28.871Z,18.50
2023-05-21T22:44:17.759Z,18.50
2023-05-21T22:47:11.012Z,18.50
2023-05-21T22:50:01.024Z,18.40
2023-05-21T22:52:50.438Z,18.40
2023-05-21T22:55:40.944Z,18.40
2023-05-21T22:58:29.712Z,18.40
2023-05-21T23:01:18.635Z,18.30
2023-05-21T23:04:07.375Z,18.40
2023-05-21T23:06:56.117Z,18.40
2023-05-21T23:09:44.950Z,18.30
2023-05-21T23:12:35.576Z,18.20
2023-05-21T23:15:24.488Z,18.30
2023-05-21T23:18:13.302Z,18.10
2023-05-21T23:21:03.077Z,18.10
2023-05-21T23:23:51.777Z,18.00
2023-05-21T23:26:41.278Z,18.10
2023-05-21T23:29:32.030Z,18.10
2023-05-21T23:32:21.091Z,18.00
2023-05-21T23:35:11.752Z,18.00
2023-05-21T23:38:00.629Z,18.00
2023-05-21T23:40:49.506Z,17.90
2023-05-21T23:43:38.516Z,17.90
2023-05-21T23:46:28.706Z,17.90
2023-05-21T23:49:17.795Z,17.90
2023-05-21T23:52:07.285Z,17.80
2023-05-21T23:54:57.568Z,17.80
2023-05-21T23:57:46.695Z,17.70
